sensor_id;sensor_type;location;lat;lon;timestamp;pressure;altitude;pressure_sealevel;temperature;humidity
71976;BME280;68326;52.124;5.424;2023-04-01T00:02:23;99071.69;;;9.83;100.00
71976;BME280;68326;52.124;5.424;2023-04-01T00:04:49;99064.84;;;9.82;100.00
71976;BME280;68326;52.124;5.424;2023-04-01T00:07:16;99067.44;;;9.82;100.00
71976;BME280;68326;52.124;5.424;2023-04-01T00:09:42;99064.13;;;9.80;100.00
71976;BME280;68326;52.124;5.424;2023-04-01T00:12:09;99064.25;;;9.78;100.00
71976;BME280;68326;52.124;5.424;2023-04-01T00:14:35;99075.47;;;9.79;100.00
71976;BME280;68326;52.124;5.424;2023-04-01T00:17:03;99072.84;;;9.79;100.00
71976;BME280;68326;52.124;5.424;2023-04-01T00:19:30;99075.47;;;9.79;100.00
71976;BME280;68326;52.124;5.424;2023-04-01T00:21:58;99081.47;;;9.79;100.00
71976;BME280;68326;52.124;5.424;2023-04-01T00:24:24;99077.94;;;9.80;100.00
71976;BME280;68326;52.124;5.424;2023-04-01T00:26:51;99082.06;;;9.83;100.00
71976;BME280;68326;52.124;5.424;2023-04-01T00:29:17;99078.41;;;9.86;100.00
71976;BME280;68326;52.124;5.424;2023-04-01T00:31:44;99087.06;;;9.86;100.00
71976;BME280;68326;52.124;5.424;2023-04-01T00:34:11;99080.09;;;9.87;100.00
71976;BME280;68326;52.124;5.424;2023-04-01T00:36:38;99081.16;;;9.84;100.00
71976;BME280;68326;52.124;5.424;2023-04-01T00:39:04;99077.47;;;9.87;100.00
71976;BME280;68326;52.124;5.424;2023-04-01T00:41:31;99081.72;;;9.88;100.00
71976;BME280;68326;52.124;5.424;2023-04-01T00:44:20;99083.28;;;9.90;100.00
71976;BME280;68326;52.124;5.424;2023-04-01T00:46:47;99081.97;;;9.85;100.00
71976;BME280;68326;52.124;5.424;2023-04-01T00:49:16;99086.34;;;9.84;100.00
71976;BME280;68326;52.124;5.424;2023-04-01T00:51:45;99085.28;;;9.87;100.00
71976;BME280;68326;52.124;5.424;2023-04-01T00:54:12;99082.78;;;9.85;100.00
71976;BME280;68326;52.124;5.424;2023-04-01T00:56:48;99091.53;;;9.84;100.00
71976;BME280;68326;52.124;5.424;2023-04-01T00:59:22;99085.63;;;9.82;100.00
71976;BME280;68326;52.124;5.424;2023-04-01T01:01:50;99090.13;;;9.80;100.00
71976;BME280;68326;52.124;5.424;2023-04-01T01:04:31;99094.34;;;9.81;100.00
71976;BME280;68326;52.124;5.424;2023-04-01T01:12:40;99100.16;;;9.73;100.00
71976;BME280;68326;52.124;5.424;2023-04-01T01:15:12;99103.56;;;9.74;100.00
71976;BME280;68326;52.124;5.424;2023-04-01T01:20:47;99112.28;;;9.73;100.00
71976;BME280;68326;52.124;5.424;2023-04-01T01:23:29;99106.63;;;9.68;100.00
71976;BME280;68326;52.124;5.424;2023-04-01T01:31:33;99104.38;;;9.63;100.00
71976;BME280;68326;52.124;5.424;2023-04-01T01:37:14;99106.34;;;9.59;100.00
71976;BME280;68326;52.124;5.424;2023-04-01T01:39:43;99104.91;;;9.55;100.00
71976;BME280;68326;52.124;5.424;2023-04-01T01:42:13;99105.16;;;9.52;100.00
71976;BME280;68326;52.124;5.424;2023-04-01T01:44:43;99119.88;;;9.52;100.00
71976;BME280;68326;52.124;5.424;2023-04-01T01:47:11;99112.44;;;9.47;100.00
71976;BME280;68326;52.124;5.424;2023-04-01T01:49:41;99116.94;;;9.45;100.00
71976;BME280;68326;52.124;5.424;2023-04-01T01:52:09;99112.91;;;9.41;100.00
71976;BME280;68326;52.124;5.424;2023-04-01T01:54:36;99112.91;;;9.41;100.00
71976;BME280;68326;52.124;5.424;2023-04-01T01:57:06;99115.38;;;9.43;100.00
71976;BME280;68326;52.124;5.424;2023-04-01T01:59:35;99113.59;;;9.43;100.00
71976;BME280;68326;52.124;5.424;2023-04-01T02:02:05;99115.38;;;9.43;100.00
71976;BME280;68326;52.124;5.424;2023-04-01T02:04:37;99111.88;;;9.44;100.00
71976;BME280;68326;52.124;5.424;2023-04-01T02:07:28;99121.53;;;9.42;100.00
71976;BME280;68326;52.124;5.424;2023-04-01T02:09:56;99122.81;;;9.36;100.00
71976;BME280;68326;52.124;5.424;2023-04-01T02:12:23;99126.13;;;9.38;100.00
71976;BME280;68326;52.124;5.424;2023-04-01T02:17:25;99129.53;;;9.38;100.00
71976;BME280;68326;52.124;5.424;2023-04-01T02:19:57;99130.50;;;9.37;100.00
71976;BME280;68326;52.124;5.424;2023-04-01T02:22:28;99127.38;;;9.32;100.00
71976;BME280;68326;52.124;5.424;2023-04-01T02:25:03;99131.84;;;9.30;100.00
71976;BME280;68326;52.124;5.424;2023-04-01T02:27:31;99128.78;;;9.25;100.00
71976;BME280;68326;52.124;5.424;2023-04-01T02:29:58;99126.38;;;9.22;100.00
71976;BME280;68326;52.124;5.424;2023-04-01T02:32:25;99131.72;;;9.21;100.00
71976;BME280;68326;52.124;5.424;2023-04-01T02:34:53;99134.41;;;9.19;100.00
71976;BME280;68326;52.124;5.424;2023-04-01T02:37:20;99141.38;;;9.18;100.00
71976;BME280;68326;52.124;5.424;2023-04-01T02:39:46;99134.75;;;9.14;100.00
71976;BME280;68326;52.124;5.424;2023-04-01T02:42:14;99144.50;;;9.11;100.00
71976;BME280;68326;52.124;5.424;2023-04-01T02:44:40;99131.53;;;9.11;100.00
71976;BME280;68326;52.124;5.424;2023-04-01T02:47:07;99127.50;;;9.07;100.00
71976;BME280;68326;52.124;5.424;2023-04-01T02:49:33;99136.81;;;9.09;100.00
71976;BME280;68326;52.124;5.424;2023-04-01T02:52:00;99145.47;;;9.10;100.00
71976;BME280;68326;52.124;5.424;2023-04-01T02:54:26;99142.00;;;9.09;100.00
71976;BME280;68326;52.124;5.424;2023-04-01T02:56:53;99149.94;;;9.08;100.00
71976;BME280;68326;52.124;5.424;2023-04-01T02:59:19;99137.78;;;9.08;100.00
71976;BME280;68326;52.124;5.424;2023-04-01T03:01:46;99142.88;;;9.10;100.00
71976;BME280;68326;52.124;5.424;2023-04-01T03:04:12;99144.59;;;9.09;100.00
71976;BME280;68326;52.124;5.424;2023-04-01T03:06:39;99138.69;;;9.07;100.00
71976;BME280;68326;52.124;5.424;2023-04-01T03:09:05;99151.66;;;9.07;100.00
71976;BME280;68326;52.124;5.424;2023-04-01T03:11:31;99153.13;;;9.11;100.00
71976;BME280;68326;52.124;5.424;2023-04-01T03:13:58;99148.78;;;9.12;100.00
71976;BME280;68326;52.124;5.424;2023-04-01T03:16:24;99157.28;;;9.14;100.00
71976;BME280;68326;52.124;5.424;2023-04-01T03:18:51;99155.59;;;9.13;100.00
71976;BME280;68326;52.124;5.424;2023-04-01T03:21:21;99158.09;;;9.14;100.00
71976;BME280;68326;52.124;5.424;2023-04-01T03:23:48;99160.78;;;9.13;100.00
71976;BME280;68326;52.124;5.424;2023-04-01T03:26:15;99168.69;;;9.11;100.00
71976;BME280;68326;52.124;5.424;2023-04-01T03:28:42;99169.53;;;9.12;100.00
71976;BME280;68326;52.124;5.424;2023-04-01T03:31:10;99174.50;;;9.15;100.00
71976;BME280;68326;52.124;5.424;2023-04-01T03:33:36;99181.44;;;9.14;100.00
71976;BME280;68326;52.124;5.424;2023-04-01T03:36:03;99178.84;;;9.14;100.00
71976;BME280;68326;52.124;5.424;2023-04-01T03:38:35;99179.78;;;9.13;100.00
71976;BME280;68326;52.124;5.424;2023-04-01T03:41:02;99184.25;;;9.11;100.00
71976;BME280;68326;52.124;5.424;2023-04-01T03:43:29;99185.81;;;9.14;100.00
71976;BME280;68326;52.124;5.424;2023-04-01T03:45:55;99181.56;;;9.13;100.00
71976;BME280;68326;52.124;5.424;2023-04-01T03:48:24;99185.81;;;9.14;100.00
71976;BME280;68326;52.124;5.424;2023-04-01T03:50:51;99189.97;;;9.16;100.00
71976;BME280;68326;52.124;5.424;2023-04-01T03:53:18;99193.16;;;9.20;100.00
71976;BME280;68326;52.124;5.424;2023-04-01T03:55:45;99194.81;;;9.21;100.00
71976;BME280;68326;52.124;5.424;2023-04-01T03:58:11;99197.41;;;9.21;100.00
71976;BME280;68326;52.124;5.424;2023-04-01T04:00:38;99198.22;;;9.22;100.00
71976;BME280;68326;52.124;5.424;2023-04-01T04:03:06;99199.66;;;9.26;100.00
71976;BME280;68326;52.124;5.424;2023-04-01T04:05:33;99202.16;;;9.27;100.00
71976;BME280;68326;52.124;5.424;2023-04-01T04:08:00;99207.25;;;9.29;100.00
71976;BME280;68326;52.124;5.424;2023-04-01T04:10:26;99209.84;;;9.29;100.00
71976;BME280;68326;52.124;5.424;2023-04-01T04:12:55;99218.47;;;9.29;100.00
71976;BME280;68326;52.124;5.424;2023-04-01T04:15:22;99214.09;;;9.30;100.00
71976;BME280;68326;52.124;5.424;2023-04-01T04:17:49;99219.19;;;9.31;100.00
71976;BME280;68326;52.124;5.424;2023-04-01T04:20:15;99225.91;;;9.34;100.00
71976;BME280;68326;52.124;5.424;2023-04-01T04:22:42;99224.97;;;9.35;100.00
71976;BME280;68326;52.124;5.424;2023-04-01T04:25:09;99226.75;;;9.34;100.00
71976;BME280;68326;52.124;5.424;2023-04-01T04:27:35;99234.31;;;9.37;100.00
71976;BME280;68326;52.124;5.424;2023-04-01T04:30:03;99236.06;;;9.37;100.00
71976;BME280;68326;52.124;5.424;2023-04-01T04:32:30;99241.25;;;9.37;100.00
71976;BME280;68326;52.124;5.424;2023-04-01T04:34:56;99241.97;;;9.39;100.00
71976;BME280;68326;52.124;5.424;2023-04-01T04:37:23;99239.28;;;9.41;100.00
71976;BME280;68326;52.124;5.424;2023-04-01T04:39:49;99243.31;;;9.45;100.00
71976;BME280;68326;52.124;5.424;2023-04-01T04:42:16;99252.88;;;9.44;100.00
71976;BME280;68326;52.124;5.424;2023-04-01T04:44:42;99253.59;;;9.46;100.00
71976;BME280;68326;52.124;5.424;2023-04-01T04:47:08;99255.97;;;9.49;100.00
71976;BME280;68326;52.124;5.424;2023-04-01T04:49:35;99260.25;;;9.50;100.00
71976;BME280;68326;52.124;5.424;2023-04-01T04:52:02;99261.69;;;9.54;100.00
71976;BME280;68326;52.124;5.424;2023-04-01T04:54:29;99270.28;;;9.55;100.00
71976;BME280;68326;52.124;5.424;2023-04-01T04:56:55;99276.31;;;9.55;100.00
71976;BME280;68326;52.124;5.424;2023-04-01T04:59:22;99278.69;;;9.58;100.00
71976;BME280;68326;52.124;5.424;2023-04-01T05:01:48;99284.81;;;9.57;100.00
71976;BME280;68326;52.124;5.424;2023-04-01T05:04:15;99288.38;;;9.56;100.00
71976;BME280;68326;52.124;5.424;2023-04-01T05:06:43;99292.50;;;9.59;100.00
71976;BME280;68326;52.124;5.424;2023-04-01T05:09:11;99292.50;;;9.59;100.00
71976;BME280;68326;52.124;5.424;2023-04-01T05:11:37;99297.69;;;9.59;100.00
71976;BME280;68326;52.124;5.424;2023-04-01T05:14:04;99308.81;;;9.61;100.00
71976;BME280;68326;52.124;5.424;2023-04-01T05:16:30;99308.69;;;9.63;100.00
71976;BME280;68326;52.124;5.424;2023-04-01T05:18:57;99307.84;;;9.62;100.00
71976;BME280;68326;52.124;5.424;2023-04-01T05:21:24;99322.38;;;9.65;100.00
71976;BME280;68326;52.124;5.424;2023-04-01T05:23:50;99314.72;;;9.63;100.00
71976;BME280;68326;52.124;5.424;2023-04-01T05:26:17;99328.63;;;9.62;100.00
71976;BME280;68326;52.124;5.424;2023-04-01T05:28:43;99327.91;;;9.60;100.00
71976;BME280;68326;52.124;5.424;2023-04-01T05:31:10;99334.78;;;9.61;100.00
71976;BME280;68326;52.124;5.424;2023-04-01T05:33:36;99333.00;;;9.62;100.00
71976;BME280;68326;52.124;5.424;2023-04-01T05:36:11;99334.66;;;9.63;100.00
71976;BME280;68326;52.124;5.424;2023-04-01T05:38:38;99346.94;;;9.61;100.00
71976;BME280;68326;52.124;5.424;2023-04-01T05:41:05;99349.53;;;9.61;100.00
71976;BME280;68326;52.124;5.424;2023-04-01T05:43:31;99348.69;;;9.60;100.00
71976;BME280;68326;52.124;5.424;2023-04-01T05:45:58;99359.22;;;9.58;100.00
71976;BME280;68326;52.124;5.424;2023-04-01T05:48:24;99354.72;;;9.61;100.00
71976;BME280;68326;52.124;5.424;2023-04-01T05:50:51;99362.41;;;9.62;100.00
71976;BME280;68326;52.124;5.424;2023-04-01T05:53:17;99358.75;;;9.65;100.00
71976;BME280;68326;52.124;5.424;2023-04-01T05:55:43;99366.66;;;9.63;100.00
71976;BME280;68326;52.124;5.424;2023-04-01T05:58:10;99365.63;;;9.66;100.00
71976;BME280;68326;52.124;5.424;2023-04-01T06:00:38;99367.41;;;9.65;100.00
71976;BME280;68326;52.124;5.424;2023-04-01T06:03:04;99376.72;;;9.68;100.00
71976;BME280;68326;52.124;5.424;2023-04-01T06:05:38;99377.56;;;9.68;100.00
71976;BME280;68326;52.124;5.424;2023-04-01T06:08:13;99382.66;;;9.70;100.00
71976;BME280;68326;52.124;5.424;2023-04-01T06:22:26;99407.81;;;9.69;100.00
71976;BME280;68326;52.124;5.424;2023-04-01T06:38:18;99426.81;;;9.70;100.00
71976;BME280;68326;52.124;5.424;2023-04-01T06:44:05;99437.81;;;9.73;100.00
71976;BME280;68326;52.124;5.424;2023-04-01T06:46:59;99443.84;;;9.74;100.00
71976;BME280;68326;52.124;5.424;2023-04-01T06:55:17;99454.97;;;9.76;100.00
71976;BME280;68326;52.124;5.424;2023-04-01T06:57:50;99464.53;;;9.75;100.00
71976;BME280;68326;52.124;5.424;2023-04-01T07:00:20;99466.41;;;9.73;100.00
71976;BME280;68326;52.124;5.424;2023-04-01T07:03:06;99465.22;;;9.77;100.00
71976;BME280;68326;52.124;5.424;2023-04-01T07:05:37;99473.88;;;9.78;100.00
71976;BME280;68326;52.124;5.424;2023-04-01T07:08:11;99474.59;;;9.80;100.00
71976;BME280;68326;52.124;5.424;2023-04-01T07:10:47;99478.63;;;9.84;100.00
71976;BME280;68326;52.124;5.424;2023-04-01T07:13:26;99484.44;;;9.88;100.00
71976;BME280;68326;52.124;5.424;2023-04-01T07:16:01;99491.50;;;9.86;100.00
71976;BME280;68326;52.124;5.424;2023-04-01T07:18:50;99494.81;;;9.88;100.00
71976;BME280;68326;52.124;5.424;2023-04-01T07:21:26;99499.19;;;9.87;100.00
71976;BME280;68326;52.124;5.424;2023-04-01T07:24:03;99503.66;;;9.85;100.00
71976;BME280;68326;52.124;5.424;2023-04-01T07:26:31;99504.41;;;9.87;100.00
71976;BME280;68326;52.124;5.424;2023-04-01T07:28:58;99512.00;;;9.90;100.00
71976;BME280;68326;52.124;5.424;2023-04-01T07:31:53;99521.94;;;9.96;100.00
71976;BME280;68326;52.124;5.424;2023-04-01T07:34:37;99521.53;;;10.03;100.00
71976;BME280;68326;52.124;5.424;2023-04-01T07:37:15;99527.66;;;10.02;100.00
71976;BME280;68326;52.124;5.424;2023-04-01T07:39:58;99528.38;;;10.04;100.00
71976;BME280;68326;52.124;5.424;2023-04-01T07:42:57;99537.25;;;10.01;100.00
71976;BME280;68326;52.124;5.424;2023-04-01T07:45:36;99536.19;;;10.04;100.00
71976;BME280;68326;52.124;5.424;2023-04-01T07:54:08;99550.34;;;9.99;100.00
71976;BME280;68326;52.124;5.424;2023-04-01T07:56:47;99554.56;;;10.00;100.00
71976;BME280;68326;52.124;5.424;2023-04-01T08:07:25;99577.13;;;10.00;100.00
71976;BME280;68326;52.124;5.424;2023-04-01T08:10:07;99582.25;;;10.02;100.00
71976;BME280;68326;52.124;5.424;2023-04-01T08:12:40;99581.41;;;10.01;100.00
71976;BME280;68326;52.124;5.424;2023-04-01T08:15:28;99589.00;;;10.04;100.00
71976;BME280;68326;52.124;5.424;2023-04-01T08:18:03;99593.38;;;10.04;100.00
71976;BME280;68326;52.124;5.424;2023-04-01T08:20:58;99597.28;;;10.09;100.00
71976;BME280;68326;52.124;5.424;2023-04-01T08:23:38;99597.41;;;10.08;100.00
71976;BME280;68326;52.124;5.424;2023-04-01T08:26:30;99599.91;;;10.09;100.00
71976;BME280;68326;52.124;5.424;2023-04-01T08:31:36;99611.25;;;10.08;100.00
71976;BME280;68326;52.124;5.424;2023-04-01T08:34:08;99615.63;;;10.08;100.00
71976;BME280;68326;52.124;5.424;2023-04-01T08:36:42;99615.63;;;10.08;100.00
71976;BME280;68326;52.124;5.424;2023-04-01T08:39:12;99629.53;;;10.07;100.00
71976;BME280;68326;52.124;5.424;2023-04-01T08:45:32;99632.66;;;10.12;100.00
71976;BME280;68326;52.124;5.424;2023-04-01T08:53:05;99639.59;;;10.11;100.00
71976;BME280;68326;52.124;5.424;2023-04-01T08:58:31;99644.31;;;10.19;100.00
71976;BME280;68326;52.124;5.424;2023-04-01T09:18:12;99679.78;;;10.58;100.00
71976;BME280;68326;52.124;5.424;2023-04-01T09:23:33;99688.59;;;10.56;100.00
71976;BME280;68326;52.124;5.424;2023-04-01T09:35:00;99696.41;;;10.43;100.00
71976;BME280;68326;52.124;5.424;2023-04-01T09:43:22;99709.41;;;10.56;100.00
71976;BME280;68326;52.124;5.424;2023-04-01T09:46:09;99709.63;;;10.66;100.00
71976;BME280;68326;52.124;5.424;2023-04-01T09:48:51;99714.91;;;10.77;100.00
71976;BME280;68326;52.124;5.424;2023-04-01T09:51:37;99720.25;;;10.75;100.00
71976;BME280;68326;52.124;5.424;2023-04-01T09:54:27;99719.50;;;10.86;100.00
71976;BME280;68326;52.124;5.424;2023-04-01T10:24:11;99736.34;;;11.78;100.00
71976;BME280;68326;52.124;5.424;2023-04-01T10:38:19;99756.09;;;11.70;100.00
71976;BME280;68326;52.124;5.424;2023-04-01T10:44:24;99759.19;;;11.51;100.00
71976;BME280;68326;52.124;5.424;2023-04-01T10:52:36;99771.16;;;11.53;100.00
71976;BME280;68326;52.124;5.424;2023-04-01T10:55:19;99764.69;;;11.59;100.00
71976;BME280;68326;52.124;5.424;2023-04-01T11:12:29;99785.94;;;11.90;99.35
71976;BME280;68326;52.124;5.424;2023-04-01T11:34:31;99818.53;;;11.34;100.00
71976;BME280;68326;52.124;5.424;2023-04-01T11:37:15;99818.00;;;11.42;100.00
71976;BME280;68326;52.124;5.424;2023-04-01T11:43:00;99825.75;;;11.68;100.00
71976;BME280;68326;52.124;5.424;2023-04-01T11:45:40;99833.78;;;11.65;98.78
71976;BME280;68326;52.124;5.424;2023-04-01T11:48:17;99831.47;;;11.60;97.37
71976;BME280;68326;52.124;5.424;2023-04-01T11:53:44;99846.19;;;11.61;99.06
71976;BME280;68326;52.124;5.424;2023-04-01T12:05:38;99864.66;;;11.45;99.73
71976;BME280;68326;52.124;5.424;2023-04-01T12:14:06;99873.00;;;11.50;100.00
71976;BME280;68326;52.124;5.424;2023-04-01T12:16:54;99876.09;;;11.55;100.00
71976;BME280;68326;52.124;5.424;2023-04-01T12:19:46;99879.53;;;11.56;100.00
71976;BME280;68326;52.124;5.424;2023-04-01T12:22:41;99875.63;;;11.50;100.00
71976;BME280;68326;52.124;5.424;2023-04-01T12:25:20;99888.00;;;11.47;100.00
71976;BME280;68326;52.124;5.424;2023-04-01T12:27:57;99888.84;;;11.47;100.00
71976;BME280;68326;52.124;5.424;2023-04-01T12:33:31;99892.50;;;11.45;100.00
71976;BME280;68326;52.124;5.424;2023-04-01T12:44:33;99908.66;;;11.37;100.00
71976;BME280;68326;52.124;5.424;2023-04-01T12:47:19;99911.34;;;11.48;100.00
71976;BME280;68326;52.124;5.424;2023-04-01T12:55:43;99920.47;;;11.67;100.00
71976;BME280;68326;52.124;5.424;2023-04-01T13:01:10;99916.81;;;11.82;100.00
71976;BME280;68326;52.124;5.424;2023-04-01T13:12:07;99937.56;;;11.71;100.00
71976;BME280;68326;52.124;5.424;2023-04-01T13:23:18;99954.16;;;11.70;100.00
71976;BME280;68326;52.124;5.424;2023-04-01T13:28:43;99962.50;;;11.49;100.00
71976;BME280;68326;52.124;5.424;2023-04-01T13:31:40;99967.41;;;11.54;100.00
71976;BME280;68326;52.124;5.424;2023-04-01T13:42:29;99972.94;;;11.23;100.00
71976;BME280;68326;52.124;5.424;2023-04-01T13:45:15;99976.34;;;11.24;100.00
71976;BME280;68326;52.124;5.424;2023-04-01T13:53:50;99981.78;;;11.21;100.00
71976;BME280;68326;52.124;5.424;2023-04-01T13:56:37;99984.69;;;11.16;100.00
71976;BME280;68326;52.124;5.424;2023-04-01T14:04:53;99993.97;;;11.08;100.00
71976;BME280;68326;52.124;5.424;2023-04-01T14:21:27;100033.03;;;11.08;100.00
71976;BME280;68326;52.124;5.424;2023-04-01T14:24:20;100039.34;;;11.04;100.00
71976;BME280;68326;52.124;5.424;2023-04-01T14:27:11;100040.91;;;11.06;100.00
71976;BME280;68326;52.124;5.424;2023-04-01T14:30:31;100045.47;;;11.02;100.00
71976;BME280;68326;52.124;5.424;2023-04-01T14:34:05;100058.63;;;11.01;100.00
71976;BME280;68326;52.124;5.424;2023-04-01T14:36:29;100058.81;;;10.98;100.00
71976;BME280;68326;52.124;5.424;2023-04-01T14:42:18;100072.22;;;10.92;100.00
71976;BME280;68326;52.124;5.424;2023-04-01T14:47:43;100082.91;;;10.87;100.00
71976;BME280;68326;52.124;5.424;2023-04-01T14:50:15;100081.34;;;10.85;100.00
71976;BME280;68326;52.124;5.424;2023-04-01T14:52:55;100088.34;;;10.84;100.00
71976;BME280;68326;52.124;5.424;2023-04-01T14:58:18;100096.63;;;10.76;100.00
71976;BME280;68326;52.124;5.424;2023-04-01T15:11:23;100121.44;;;10.82;100.00
71976;BME280;68326;52.124;5.424;2023-04-01T15:13:58;100132.47;;;10.86;100.00
71976;BME280;68326;52.124;5.424;2023-04-01T15:16:41;100137.59;;;10.87;100.00
71976;BME280;68326;52.124;5.424;2023-04-01T15:22:25;100145.47;;;10.86;100.00
71976;BME280;68326;52.124;5.424;2023-04-01T15:35:26;100164.25;;;10.91;100.00
71976;BME280;68326;52.124;5.424;2023-04-01T15:40:51;100181.75;;;10.89;100.00
71976;BME280;68326;52.124;5.424;2023-04-01T15:52:05;100201.66;;;10.75;100.00
71976;BME280;68326;52.124;5.424;2023-04-01T15:57:28;100211.03;;;10.78;100.00
71976;BME280;68326;52.124;5.424;2023-04-01T16:03:19;100227.84;;;10.72;100.00
71976;BME280;68326;52.124;5.424;2023-04-01T16:08:56;100240.31;;;10.53;100.00
71976;BME280;68326;52.124;5.424;2023-04-01T16:14:02;100250.06;;;10.49;100.00
71976;BME280;68326;52.124;5.424;2023-04-01T16:16:59;100258.88;;;10.47;100.00
71976;BME280;68326;52.124;5.424;2023-04-01T16:22:27;100266.38;;;10.37;100.00
71976;BME280;68326;52.124;5.424;2023-04-01T16:27:49;100284.19;;;10.29;100.00
71976;BME280;68326;52.124;5.424;2023-04-01T16:30:46;100286.72;;;10.30;100.00
71976;BME280;68326;52.124;5.424;2023-04-01T16:36:28;100294.59;;;10.29;100.00
71976;BME280;68326;52.124;5.424;2023-04-01T16:41:52;100307.47;;;10.16;100.00
71976;BME280;68326;52.124;5.424;2023-04-01T16:44:26;100313.75;;;10.12;100.00
71976;BME280;68326;52.124;5.424;2023-04-01T16:47:06;100314.75;;;10.09;100.00
71976;BME280;68326;52.124;5.424;2023-04-01T16:49:40;100328.88;;;10.05;100.00
71976;BME280;68326;52.124;5.424;2023-04-01T16:54:56;100338.75;;;9.98;100.00
71976;BME280;68326;52.124;5.424;2023-04-01T16:57:45;100337.00;;;9.99;100.00
71976;BME280;68326;52.124;5.424;2023-04-01T17:02:49;100348.75;;;9.90;100.00
71976;BME280;68326;52.124;5.424;2023-04-01T17:05:18;100364.59;;;9.86;100.00
71976;BME280;68326;52.124;5.424;2023-04-01T17:07:48;100365.78;;;9.80;100.00
71976;BME280;68326;52.124;5.424;2023-04-01T17:10:25;100378.16;;;9.75;100.00
71976;BME280;68326;52.124;5.424;2023-04-01T17:21:49;100398.97;;;9.75;100.00
71976;BME280;68326;52.124;5.424;2023-04-01T17:35:57;100428.28;;;9.61;100.00
71976;BME280;68326;52.124;5.424;2023-04-01T17:38:56;100436.09;;;9.61;100.00
71976;BME280;68326;52.124;5.424;2023-04-01T17:41:48;100442.03;;;9.63;100.00
71976;BME280;68326;52.124;5.424;2023-04-01T17:47:52;100465.13;;;9.52;100.00
71976;BME280;68326;52.124;5.424;2023-04-01T17:53:47;100477.59;;;9.45;100.00
71976;BME280;68326;52.124;5.424;2023-04-01T17:56:25;100483.66;;;9.46;100.00
71976;BME280;68326;52.124;5.424;2023-04-01T17:59:21;100496.00;;;9.41;100.00
71976;BME280;68326;52.124;5.424;2023-04-01T18:01:59;100494.66;;;9.33;100.00
71976;BME280;68326;52.124;5.424;2023-04-01T18:04:37;100500.84;;;9.31;100.00
71976;BME280;68326;52.124;5.424;2023-04-01T18:12:40;100525.06;;;9.31;100.00
71976;BME280;68326;52.124;5.424;2023-04-01T18:18:18;100539.56;;;9.18;100.00
71976;BME280;68326;52.124;5.424;2023-04-01T18:26:22;100558.88;;;9.30;100.00
71976;BME280;68326;52.124;5.424;2023-04-01T18:28:56;100564.06;;;9.30;100.00
71976;BME280;68326;52.124;5.424;2023-04-01T18:31:31;100568.50;;;9.28;99.52
71976;BME280;68326;52.124;5.424;2023-04-01T18:34:53;100578.13;;;9.26;100.00
71976;BME280;68326;52.124;5.424;2023-04-01T18:36:58;100579.19;;;9.22;99.73
71976;BME280;68326;52.124;5.424;2023-04-01T18:39:47;100591.38;;;9.19;99.85
71976;BME280;68326;52.124;5.424;2023-04-01T18:48:03;100605.44;;;9.15;99.52
71976;BME280;68326;52.124;5.424;2023-04-01T18:50:55;100621.94;;;9.14;99.96
71976;BME280;68326;52.124;5.424;2023-04-01T18:53:29;100624.75;;;9.10;99.69
71976;BME280;68326;52.124;5.424;2023-04-01T18:56:03;100630.91;;;9.07;100.00
71976;BME280;68326;52.124;5.424;2023-04-01T18:58:37;100633.59;;;9.06;99.55
71976;BME280;68326;52.124;5.424;2023-04-01T19:01:19;100641.22;;;9.09;100.00
71976;BME280;68326;52.124;5.424;2023-04-01T19:06:57;100666.34;;;9.08;99.68
71976;BME280;68326;52.124;5.424;2023-04-01T19:09:43;100662.22;;;9.04;99.12
71976;BME280;68326;52.124;5.424;2023-04-01T19:15:08;100668.19;;;9.06;99.21
71976;BME280;68326;52.124;5.424;2023-04-01T19:17:58;100681.38;;;9.02;99.45
71976;BME280;68326;52.124;5.424;2023-04-01T19:20:53;100691.81;;;9.00;98.77
71976;BME280;68326;52.124;5.424;2023-04-01T19:23:47;100691.75;;;9.02;98.44
71976;BME280;68326;52.124;5.424;2023-04-01T19:28:57;100711.59;;;9.03;98.70
71976;BME280;68326;52.124;5.424;2023-04-01T19:31:39;100714.56;;;8.95;98.68
71976;BME280;68326;52.124;5.424;2023-04-01T19:36:50;100728.59;;;8.91;98.50
71976;BME280;68326;52.124;5.424;2023-04-01T19:51:00;100748.13;;;8.79;98.87
71976;BME280;68326;52.124;5.424;2023-04-01T19:56:39;100773.28;;;8.77;97.75
71976;BME280;68326;52.124;5.424;2023-04-01T19:59:31;100772.53;;;8.75;98.55
71976;BME280;68326;52.124;5.424;2023-04-01T20:02:29;100788.34;;;8.69;98.38
71976;BME280;68326;52.124;5.424;2023-04-01T20:05:04;100795.63;;;8.61;98.92
71976;BME280;68326;52.124;5.424;2023-04-01T20:07:47;100794.16;;;8.55;99.37
71976;BME280;68326;52.124;5.424;2023-04-01T20:10:25;100802.97;;;8.51;99.89
71976;BME280;68326;52.124;5.424;2023-04-01T20:16:13;100806.78;;;8.42;99.15
71976;BME280;68326;52.124;5.424;2023-04-01T20:18:57;100812.75;;;8.44;99.77
71976;BME280;68326;52.124;5.424;2023-04-01T20:21:36;100813.53;;;8.46;99.88
71976;BME280;68326;52.124;5.424;2023-04-01T20:26:43;100838.13;;;8.36;98.42
71976;BME280;68326;52.124;5.424;2023-04-01T20:29:35;100852.75;;;8.37;98.98
71976;BME280;68326;52.124;5.424;2023-04-01T20:35:11;100858.81;;;8.37;98.59
71976;BME280;68326;52.124;5.424;2023-04-01T20:37:40;100858.03;;;8.35;98.47
71976;BME280;68326;52.124;5.424;2023-04-01T20:40:23;100870.06;;;8.36;98.97
71976;BME280;68326;52.124;5.424;2023-04-01T20:45:38;100887.22;;;8.41;97.75
71976;BME280;68326;52.124;5.424;2023-04-01T20:53:54;100896.97;;;8.34;97.84
71976;BME280;68326;52.124;5.424;2023-04-01T20:56:35;100907.53;;;8.29;97.34
71976;BME280;68326;52.124;5.424;2023-04-01T21:05:03;100910.44;;;8.22;98.01
71976;BME280;68326;52.124;5.424;2023-04-01T21:11:00;100925.25;;;8.18;97.93
71976;BME280;68326;52.124;5.424;2023-04-01T21:16:47;100941.84;;;8.14;97.88
71976;BME280;68326;52.124;5.424;2023-04-01T21:22:34;100955.38;;;7.99;98.89
71976;BME280;68326;52.124;5.424;2023-04-01T21:25:17;100955.38;;;7.99;98.42